Headquarters, Valles Caldera, New Mexico Weather observations

Data are for 10 minute period ending at time listed.
 Day   Time   Solar   Ave.   Ave.  Ave.  Vector  Max.   Baro.   Total    
  of    of     Rad.   Air    Rel.  Wind   Wind   Wind  Press.  Precip.   
Year   Day            Temp.  Hum.  Speed  Dir.   Gust                    
2014   (MST)  Kw/m2    F      %     mph   deg.    mph    mb.     in.     
-------------------------------------------------------------------------
 210   10:20   0.91   65.6    69    0.0     0     0.0   748.1    0.00 
 210   10:30   0.24   63.8    71    0.0     0     0.0   748.0    0.00 
 210   10:40   0.18   60.9    76    0.0     0     0.0   748.0    0.00 
 210   10:50   0.89   63.3    74    0.0     0     0.0   747.9    0.00 
 210   11:00   0.89   66.7    68    0.0     0     0.0   747.7    0.00 
 210   11:10   1.02   65.9    70    0.0     0     0.0   747.6    0.00 
 210   11:20   0.83   66.3    67    0.0     0     0.0   747.5    0.00 
 210   11:30   0.77   67.0    65    0.0     0     0.0   747.4    0.00 
 210   11:40   0.32   64.5    69    0.0     0     0.0   747.3    0.00 
 210   11:50   0.34   63.3    72    0.0     0     0.0   747.3    0.00 
 210   12:00   0.36   63.4    68    0.0     0     0.0   747.3    0.00 
 210   12:10   0.29   63.9    65    0.0     0     0.0   747.4    0.00 
 210   12:20   0.24   63.1    68    0.0     0     0.0   747.4    0.00 
 210   12:30   0.27   61.9    74    0.0     0     0.0   747.5    0.00 
 210   12:40   0.36   62.0    78    0.0     0     0.0   747.3    0.00 
 210   12:50   0.37   62.7    76    0.0     0     0.0   747.3    0.00 
 210   13:00   0.47   63.8    73    0.0     0     0.0   747.2    0.00 
 210   13:10   0.42   64.7    71    0.0     0     0.0   747.2    0.00 
 210   13:20   0.16   64.3    69    0.0     0     0.0   747.1    0.00 
 210   13:30   0.06   61.7    76    0.0     0     0.0   747.1    0.03 
 210   13:40   0.03   59.1    83    0.0     0     0.0   747.3    0.03 
 210   13:50   0.07   56.8    83    0.0     0     0.0   747.2    0.16 
 210   14:00   0.14   55.0    88    0.0     0     0.0   747.3    0.01 
 210   14:10   0.54   56.4    89    0.0     0     0.0   747.1    0.00 
 210   14:20   0.67   60.6    84    0.0     0     0.0   746.9    0.00 
 210   14:30   0.60   63.0    74    0.0     0     0.0   746.8    0.00 
 210   14:40   0.69   63.0    72    0.0     0     0.0   746.8    0.00 
 210   14:50   0.69   65.2    70    0.0     0     0.0   746.7    0.00 
 210   15:00   0.71   65.1    67    0.0     0     0.0   746.5    0.00 
 210   15:10   0.72   66.5    66    0.0     0     0.0   746.4    0.00 
 210   15:20   0.63   68.2    62    0.0     0     0.0   746.2    0.00 
 210   15:30   0.67   68.3    62    0.0     0     0.0   746.1    0.00 
 210   15:40   0.52   67.9    59    0.0     0     0.0   745.9    0.00 
 210   15:50   0.40   69.4    55    0.0     0     0.0   745.8    0.00 
 210   16:00   0.30   67.5    56    0.0     0     0.0   745.8    0.00 
 210   16:10   0.49   68.9    56    0.0     0     0.0   745.7    0.00 
 210   16:20   0.38   69.3    54    0.0     0     0.0   745.7    0.00 
 210   16:30   0.20   67.0    58    0.0     0     0.0   745.8    0.00 
 210   16:40   0.46   68.5    56    0.0     0     0.0   745.7    0.00 
 210   16:50   0.21   68.1    62    0.0     0     0.0   745.6    0.00 
 210   17:00   0.12   66.4    66    0.0     0     0.0   745.6    0.00 
 210   17:10   0.08   64.5    69    0.0     0     0.0   745.6    0.00 
 210   17:20   0.07   64.2    70    0.0     0     0.0   745.4    0.00 
 210   17:30   0.03   63.7    71    0.0     0     0.0   745.3    0.00 
 210   17:40   0.02   63.3    69    0.0     0     0.0   745.3    0.00 
 210   17:50   0.01   62.8    67    0.0     0     0.0   745.4    0.01 
 210   18:00   0.03   59.5    73    0.0     0     0.0   745.5    0.02 
 210   18:10   0.15   57.3    81    0.0     0     0.0   745.5    0.00 
 210   18:20   0.19   56.7    84    0.0     0     0.0   745.4    0.00 
 210   18:30   0.14   57.5    85    0.0     0     0.0   745.5    0.00 
 210   18:40   0.08   58.0    86    0.0     0     0.0   745.5    0.00 
 210   18:50   0.03   57.4    86    0.0     0     0.0   745.4    0.00 
 210   19:00   0.01   56.3    87    0.0     0     0.0   745.5    0.00 
 210   19:10   0.01   54.9    87    0.0     0     0.0   745.8    0.00 
 210   19:20   0.00   54.2    88    0.0     0     0.0   745.8    0.00 
 210   19:30   0.00   53.6    90    0.0     0     0.0   745.8    0.00 
 210   19:40   0.00   53.2    91    0.0     0     0.0   746.0    0.00 
 210   19:50   0.00   53.0    92    0.0     0     0.0   746.1    0.00 
 210   20:00   0.00   53.3    93    0.0     0     0.0   746.1    0.00 
 210   20:10   0.00   53.2    92    0.0     0     0.0   746.2    0.00 
 210   20:20   0.00   53.4    92    0.0     0     0.0   746.2    0.00 
 210   20:30   0.00   53.1    92    0.0     0     0.0   746.2    0.00 
 210   20:40   0.00   52.5    92    0.0     0     0.0   746.3    0.00 
 210   20:50   0.00   52.8    93    0.0     0     0.0   746.4    0.00 
 210   21:00   0.00   52.9    93    0.0     0     0.0   746.5    0.00 
 210   21:10   0.00   53.0    92    0.0     0     0.0   746.6    0.00 
 210   21:20   0.00   52.9    92    0.0     0     0.0   746.8    0.00 
 210   21:30   0.00   53.1    92    0.0     0     0.0   746.8    0.00 
 210   21:40   0.00   53.0    92    0.0     0     0.0   746.9    0.00 
 210   21:50   0.00   53.5    92    0.0     0     0.0   747.2    0.00 
 210   22:00   0.00   54.2    89    0.0     0     0.0   747.1    0.00 
 210   22:10   0.00   53.7    89    0.0     0     0.0   747.0    0.00 
 210   22:20   0.00   53.0    90    0.0     0     0.0   746.8    0.00 
 210   22:30   0.00   51.8    89    0.0     0     0.0   746.8    0.00 
 210   22:40   0.00   51.7    91    0.0     0     0.0   746.9    0.00 
 210   22:50   0.00   50.4    90    0.0     0     0.0   746.8    0.00 
 210   23:00   0.00   49.2    92    0.0     0     0.0   746.7    0.00 
 210   23:10   0.00   49.4    93    0.0     0     0.0   746.6    0.00 
 210   23:20   0.00   49.0    93    0.0     0     0.0   746.6    0.00 
 210   23:30   0.00   48.6    93    0.0     0     0.0   746.5    0.00 
 210   23:40   0.00   48.5    94    0.0     0     0.0   746.4    0.00 
 210   23:50   0.00   48.8    94    0.0     0     0.0   746.4    0.00 
 211    0:00   0.00   47.9    94    0.0     0     0.0   746.3    0.00 
 211    0:10   0.00   48.0    94    0.0     0     0.0   746.1    0.00 
 211    0:20   0.00   48.3    94    0.0     0     0.0   746.0    0.00 
 211    0:30   0.00   48.1    94    0.0     0     0.0   745.9    0.00 
 211    0:40   0.00   48.6    94    0.0     0     0.0   746.2    0.00 
 211    0:50   0.00   49.5    94    0.0     0     0.0   746.1    0.00 
 211    1:00   0.00   50.5    94    0.0     0     0.0   746.7    0.04 
 211    1:10   0.00   50.2    90    0.0     0     0.0   747.2    0.16 
 211    1:20   0.00   48.2    90    0.0     0     0.0   746.7    0.00 
 211    1:30   0.00   47.9    92    0.0     0     0.0   746.4    0.00 
 211    1:40   0.00   47.9    93    0.0     0     0.0   746.2    0.00 
 211    1:50   0.00   47.7    93    0.0     0     0.0   746.0    0.00 
 211    2:00   0.00   47.4    93    0.0     0     0.0   746.1    0.00 
 211    2:10   0.00   46.6    93    0.0     0     0.0   746.1    0.00 
 211    2:20   0.00   47.1    94    0.0     0     0.0   746.1    0.00 
 211    2:30   0.00   47.5    94    0.0     0     0.0   746.1    0.00 
 211    2:40   0.00   47.1    93    0.0     0     0.0   746.0    0.00 
 211    2:50   0.00   47.2    94    0.0     0     0.0   745.8    0.00 
 211    3:00   0.00   47.6    94    0.0     0     0.0   745.7    0.00 
 211    3:10   0.00   47.7    94    0.0     0     0.0   745.7    0.00 
 211    3:20   0.00   47.5    94    0.0     0     0.0   745.6    0.00 
 211    3:30   0.00   46.9    94    0.0     0     0.0   745.4    0.00 
 211    3:40   0.00   47.0    94    0.0     0     0.0   745.3    0.00 
 211    3:50   0.00   46.9    94    0.0     0     0.0   745.3    0.00 
 211    4:00   0.00   46.3    94    0.0     0     0.0   745.2    0.00 
 211    4:10   0.00   46.0    94    0.0     0     0.0   745.1    0.00 
 211    4:20   0.00   46.5    94    0.0     0     0.0   745.1    0.00 
 211    4:30   0.00   46.7    94    0.0     0     0.0   745.1    0.00 
 211    4:40   0.00   46.8    94    0.0     0     0.0   745.2    0.00 
 211    4:50   0.00   45.7    94    0.0     0     0.0   745.3    0.00 
 211    5:00   0.00   46.4    94    0.0     0     0.0   745.3    0.00 
 211    5:10   0.00   46.0    94    0.0     0     0.0   745.4    0.01 
 211    5:20   0.00   46.2    94    0.0     0     0.0   745.4    0.00 
 211    5:30   0.01   46.2    94    0.0     0     0.0   745.5    0.00 
 211    5:40   0.03   47.0    95    0.0     0     0.0   745.5    0.00 
 211    5:50   0.01   47.8    94    0.0     0     0.0   745.6    0.00 
 211    6:00   0.01   47.1    94    0.0     0     0.0   745.5    0.00 
 211    6:10   0.01   47.1    94    0.0     0     0.0   745.5    0.00 
 211    6:20   0.04   47.4    94    0.0     0     0.0   745.7    0.00 
 211    6:30   0.17   50.1    95    0.0     0     0.0   745.7    0.00 
 211    6:40   0.20   53.3    93    0.0     0     0.0   745.9    0.00 
 211    6:50   0.22   54.4    85    0.0     0     0.0   746.1    0.00 
 211    7:00   0.25   54.5    84    0.0     0     0.0   746.2    0.00 
 211    7:10   0.28   56.3    82    0.0     0     0.0   746.3    0.00 
 211    7:20   0.31   58.7    76    0.0     0     0.0   746.4    0.00 
 211    7:30   0.34   59.5    73    0.0     0     0.0   746.4    0.00 
 211    7:40   0.36   60.1    72    0.0     0     0.0   746.4    0.00 
 211    7:50   0.39   60.2    74    0.0     0     0.0   746.4    0.00 
 211    8:00   0.42   61.4    71    0.0     0     0.0   746.4    0.00 
 211    8:10   0.46   62.6    66    0.0     0     0.0   746.4    0.00 
 211    8:20   0.47   64.2    62    0.0     0     0.0   746.5    0.00 
 211    8:30   0.49   65.3    50    0.0     0     0.0   746.5    0.00 
 211    8:40   0.50   65.5    50    0.0     0     0.0   746.5    0.00 
 211    8:50   0.53   66.3    51    0.0     0     0.0   746.5    0.00 
 211    9:00   0.57   67.0    49    0.0     0     0.0   746.5    0.00 
 211    9:10   0.63   67.7    49    0.0     0     0.0   746.5    0.00 
 211    9:20   0.64   68.7    50    0.0     0     0.0   746.5    0.00 
 211    9:30   0.46   68.4    47    0.0     0     0.0   746.4    0.00 
 211    9:40   0.52   68.2    47    0.0     0     0.0   746.5    0.00 
 211    9:50   0.76   69.2    47    0.0     0     0.0   746.5    0.00 
 211   10:00   0.51   69.5    48    0.0     0     0.0   746.5    0.00 
 211   10:10   0.54   69.1    49    0.0     0     0.0   746.5    0.00 

Return to Headquarters, Valles Caldera graphs page.


Western Regional Climate Center,wrcc@dri.edu